createdAt,value
2023-01-10T00:02:08.116Z,101112.59
2023-01-10T00:04:34.494Z,101119.97
2023-01-10T00:07:00.901Z,101115.59
2023-01-10T00:09:27.264Z,101122.88
2023-01-10T00:11:53.645Z,101119.56
2023-01-10T00:14:20.040Z,101116.94
2023-01-10T00:16:46.386Z,101115.06
2023-01-10T00:19:12.757Z,101118.97
2023-01-10T00:21:39.143Z,101122.88
2023-01-10T00:24:05.503Z,101135.22
2023-01-10T00:26:31.983Z,101138.00
2023-01-10T00:28:58.326Z,101146.94
2023-01-10T00:31:24.738Z,101153.06
2023-01-10T00:33:51.239Z,101156.97
2023-01-10T00:36:17.607Z,101155.50
2023-01-10T00:38:43.980Z,101158.50
2023-01-10T00:41:10.337Z,101155.50
2023-01-10T00:43:36.697Z,101160.88
2023-01-10T00:46:03.138Z,101169.47
2023-01-10T00:48:29.538Z,101168.09
2023-01-10T00:50:55.931Z,101163.03
2023-01-10T00:53:22.289Z,101168.94
2023-01-10T00:55:48.641Z,101165.13
2023-01-10T00:58:15.066Z,101169.97
2023-01-10T01:00:41.421Z,101173.03
2023-01-10T01:03:07.863Z,101179.91
2023-01-10T01:05:34.269Z,101182.31
2023-01-10T01:08:00.658Z,101178.81
2023-01-10T01:10:27.020Z,101189.38
2023-01-10T01:12:53.376Z,101185.81
2023-01-10T01:15:19.752Z,101191.31
2023-01-10T01:17:46.132Z,101194.44
2023-01-10T01:20:12.487Z,101195.84
2023-01-10T01:22:38.850Z,101195.84
2023-01-10T01:25:05.224Z,101209.06
2023-01-10T01:27:31.626Z,101210.69
2023-01-10T01:29:58.031Z,101210.38
2023-01-10T01:32:24.421Z,101209.06
2023-01-10T01:34:50.982Z,101226.25
2023-01-10T01:37:17.349Z,101225.56
2023-01-10T01:39:43.707Z,101232.53
2023-01-10T01:42:10.075Z,101229.41
2023-01-10T01:44:36.444Z,101231.22
2023-01-10T01:47:02.828Z,101242.56
2023-01-10T01:49:29.194Z,101237.66
2023-01-10T01:51:55.569Z,101223.13
2023-01-10T01:54:21.910Z,101207.66
2023-01-10T01:56:48.298Z,101211.88
2023-01-10T01:59:14.676Z,101214.25
2023-01-10T02:01:41.176Z,101228.63
2023-01-10T02:04:07.686Z,101235.25
2023-01-10T02:06:34.131Z,101238.25
2023-01-10T02:09:00.506Z,101240.13
2023-01-10T02:11:27.271Z,101233.56
2023-01-10T02:13:53.623Z,101230.19
2023-01-10T02:16:20.055Z,101251.16
2023-01-10T02:18:46.491Z,101250.47
2023-01-10T02:21:12.873Z,101257.72
2023-01-10T02:23:39.260Z,101256.53
2023-01-10T02:26:05.687Z,101260.44
2023-01-10T02:28:32.036Z,101267.50
2023-01-10T02:30:58.427Z,101266.72
2023-01-10T02:33:24.834Z,101271.41
2023-01-10T02:35:51.206Z,101267.06
2023-01-10T02:38:17.599Z,101261.34
2023-01-10T02:40:43.953Z,101265.25
2023-01-10T02:43:10.307Z,101271.72
2023-01-10T02:45:36.680Z,101267.41
2023-01-10T02:48:03.036Z,101270.63
2023-01-10T02:50:29.400Z,101281.94
2023-01-10T02:52:55.755Z,101285.41
2023-01-10T02:55:22.224Z,101289.66
2023-01-10T02:57:48.592Z,101291.22
2023-01-10T03:00:14.950Z,101299.38
2023-01-10T03:02:41.312Z,101295.47
2023-01-10T03:05:07.691Z,101283.06
2023-01-10T03:07:34.069Z,101290.03
2023-01-10T03:10:00.450Z,101274.19
2023-01-10T03:12:26.828Z,101277.94
2023-01-10T03:14:53.227Z,101283.38
2023-01-10T03:17:19.594Z,101277.25
2023-01-10T03:19:45.968Z,101262.97
2023-01-10T03:22:12.343Z,101270.56
2023-01-10T03:24:38.711Z,101275.22
2023-01-10T03:27:05.083Z,101275.28
2023-01-10T03:29:31.455Z,101280.66
2023-01-10T03:31:57.826Z,101288.13
2023-01-10T03:34:24.213Z,101294.78
2023-01-10T03:36:50.561Z,101289.25
2023-01-10T03:39:16.928Z,101291.97
2023-01-10T03:41:43.295Z,101291.53
2023-01-10T03:44:09.650Z,101291.53
2023-01-10T03:46:36.040Z,101297.13
2023-01-10T03:49:02.466Z,101295.97
2023-01-10T03:51:28.939Z,101303.34
2023-01-10T03:53:55.297Z,101306.75
2023-01-10T03:56:21.638Z,101307.16
2023-01-10T03:58:48.010Z,101307.53
2023-01-10T04:01:14.489Z,101306.69
2023-01-10T04:03:40.917Z,101311.81
2023-01-10T04:06:07.312Z,101307.59
2023-01-10T04:08:33.682Z,101314.84
2023-01-10T04:11:00.040Z,101310.31
2023-01-10T04:13:26.408Z,101315.75
2023-01-10T04:15:52.780Z,101313.13
2023-01-10T04:18:19.171Z,101310.25
2023-01-10T04:20:45.581Z,101305.59
2023-01-10T04:23:11.944Z,101313.69
2023-01-10T04:25:38.325Z,101314.16
2023-01-10T04:28:04.738Z,101304.13
2023-01-10T04:30:31.100Z,101304.81
2023-01-10T04:32:57.453Z,101306.06
2023-01-10T04:35:23.865Z,101307.94
2023-01-10T04:37:50.244Z,101321.13
2023-01-10T04:40:16.621Z,101318.41
2023-01-10T04:42:42.985Z,101309.91
2023-01-10T04:45:09.343Z,101325.47
2023-01-10T04:47:35.726Z,101320.44
2023-01-10T04:50:02.094Z,101324.25
2023-01-10T04:52:28.439Z,101327.34
2023-01-10T04:54:54.803Z,101332.03
2023-01-10T04:57:21.152Z,101325.88
2023-01-10T04:59:47.519Z,101327.13
2023-01-10T05:02:13.978Z,101332.09
2023-01-10T05:04:40.388Z,101326.97
2023-01-10T05:07:06.751Z,101330.84
2023-01-10T05:09:33.106Z,101323.56
2023-01-10T05:11:59.476Z,101325.63
2023-01-10T05:14:25.860Z,101321.22
2023-01-10T05:16:52.263Z,101322.75
2023-01-10T05:19:18.686Z,101327.41
2023-01-10T05:21:45.056Z,101314.94
2023-01-10T05:24:11.432Z,101324.69
2023-01-10T05:26:37.799Z,101320.78
2023-01-10T05:29:04.187Z,101320.78
2023-01-10T05:31:30.696Z,101329.38
2023-01-10T05:33:57.116Z,101323.66
2023-01-10T05:36:23.485Z,101319.25
2023-01-10T05:38:49.859Z,101321.97
2023-01-10T05:41:16.220Z,101317.38
2023-01-10T05:43:42.585Z,101319.75
2023-01-10T05:46:09.004Z,101318.91
2023-01-10T05:48:35.393Z,101323.66
2023-01-10T05:51:01.779Z,101313.44
2023-01-10T05:53:28.129Z,101308.72
2023-01-10T05:55:54.499Z,101316.59
2023-01-10T05:58:20.880Z,101308.78
2023-01-10T06:00:47.256Z,101314.22
2023-01-10T06:03:13.859Z,101313.44
2023-01-10T06:05:40.247Z,101302.56
2023-01-10T06:08:06.614Z,101302.50
2023-01-10T06:10:33.008Z,101308.53
2023-01-10T06:12:59.372Z,101318.13
2023-01-10T06:15:25.731Z,101320.09
2023-01-10T06:17:52.115Z,101319.66
2023-01-10T06:20:18.468Z,101313.53
2023-01-10T06:22:44.858Z,101314.94
2023-01-10T06:25:11.223Z,101306.00
2023-01-10T06:27:37.565Z,101301.72
2023-01-10T06:30:03.922Z,101315.91
2023-01-10T06:32:31.539Z,101309.56
2023-01-10T06:34:57.910Z,101318.81
2023-01-10T06:37:24.260Z,101319.34
2023-01-10T06:39:50.635Z,101309.56
2023-01-10T06:42:16.992Z,101306.06
2023-01-10T06:44:43.353Z,101322.81
2023-01-10T06:47:09.751Z,101318.22
2023-01-10T06:49:36.115Z,101320.59
2023-01-10T06:52:02.490Z,101324.06
2023-01-10T06:54:28.889Z,101332.63
2023-01-10T06:56:55.278Z,101326.38
2023-01-10T06:59:21.643Z,101329.38
2023-01-10T07:01:48.126Z,101327.13
2023-01-10T07:04:14.625Z,101325.19
2023-01-10T07:06:41.001Z,101333.00
2023-01-10T07:09:07.353Z,101327.97
2023-01-10T07:11:33.710Z,101329.84
2023-01-10T07:14:00.110Z,101319.75
2023-01-10T07:16:26.530Z,101318.22
2023-01-10T07:18:52.936Z,101315.84
2023-01-10T07:21:19.536Z,101319.41
2023-01-10T07:23:45.953Z,101319.59
2023-01-10T07:26:12.326Z,101321.69
2023-01-10T07:28:38.741Z,101315.84
2023-01-10T07:31:05.155Z,101316.16
2023-01-10T07:33:31.535Z,101316.94
2023-01-10T07:35:57.902Z,101314.94
2023-01-10T07:38:24.249Z,101316.69
2023-01-10T07:40:50.643Z,101308.00
2023-01-10T07:43:17.005Z,101304.97
2023-01-10T07:45:43.368Z,101305.09
2023-01-10T07:48:09.732Z,101315.91
2023-01-10T07:50:36.117Z,101306.97
2023-01-10T07:53:02.535Z,101299.09
2023-01-10T07:55:28.951Z,101305.50
2023-01-10T07:57:55.380Z,101315.13
2023-01-10T08:00:21.747Z,101315.91
2023-01-10T08:02:48.211Z,101304.25
2023-01-10T08:05:14.644Z,101308.78
2023-01-10T08:07:41.056Z,101312.94
2023-01-10T08:10:07.458Z,101310.53
2023-01-10T08:12:33.846Z,101319.81
2023-01-10T08:15:00.230Z,101316.81
2023-01-10T08:17:26.610Z,101309.78
2023-01-10T08:19:53.006Z,101314.03
2023-01-10T08:22:19.386Z,101309.38
2023-01-10T08:24:45.866Z,101320.72
2023-01-10T08:27:12.232Z,101321.09
2023-01-10T08:29:38.583Z,101320.25
2023-01-10T08:32:04.951Z,101318.22
2023-01-10T08:34:31.339Z,101308.84
2023-01-10T08:36:57.813Z,101300.50
2023-01-10T08:39:24.252Z,101298.13
2023-01-10T08:41:50.623Z,101289.56
2023-01-10T08:44:17.002Z,101300.44
2023-01-10T08:46:43.407Z,101307.81
2023-01-10T08:49:09.804Z,101312.41
2023-01-10T08:51:36.202Z,101315.50
2023-01-10T08:54:02.600Z,101313.53
2023-01-10T08:56:28.991Z,101326.72
2023-01-10T08:58:55.477Z,101318.44
2023-01-10T09:01:21.956Z,101315.97
2023-01-10T09:03:48.423Z,101320.72
2023-01-10T09:06:14.815Z,101307.47
2023-01-10T09:08:41.165Z,101312.16
2023-01-10T09:11:07.530Z,101309.44
2023-01-10T09:13:34.008Z,101308.66
2023-01-10T09:16:00.424Z,101318.06
2023-01-10T09:18:26.901Z,101315.28
2023-01-10T09:20:53.319Z,101311.72
2023-01-10T09:23:19.683Z,101310.34
2023-01-10T09:25:46.047Z,101295.97
2023-01-10T09:28:12.415Z,101306.00
2023-01-10T09:30:38.791Z,101299.81
2023-01-10T09:33:05.166Z,101290.38
2023-01-10T09:35:31.556Z,101296.53
2023-01-10T09:37:57.959Z,101288.78
2023-01-10T09:40:24.340Z,101297.34
2023-01-10T09:42:50.700Z,101282.63
2023-01-10T09:45:17.068Z,101281.03
2023-01-10T09:47:43.419Z,101279.59
2023-01-10T09:50:09.775Z,101274.22
2023-01-10T09:52:36.157Z,101271.06
2023-01-10T09:55:02.530Z,101277.63
2023-01-10T09:57:28.918Z,101281.94
2023-01-10T09:59:55.310Z,101279.59
2023-01-10T10:02:21.675Z,101280.00
2023-01-10T10:04:48.066Z,101276.78
2023-01-10T10:07:14.453Z,101282.63
2023-01-10T10:09:40.815Z,101278.81
2023-01-10T10:12:07.158Z,101278.75
2023-01-10T10:14:33.527Z,101284.19
2023-01-10T10:16:59.900Z,101279.91
2023-01-10T10:19:26.280Z,101277.56
2023-01-10T10:21:52.654Z,101274.84
2023-01-10T10:24:19.011Z,101277.91
2023-01-10T10:26:45.392Z,101273.31
2023-01-10T10:29:11.741Z,101256.63
2023-01-10T10:31:38.158Z,101252.88
2023-01-10T10:34:04.537Z,101241.16
2023-01-10T10:36:30.915Z,101229.50
2023-01-10T10:38:57.294Z,101232.84
2023-01-10T10:41:23.654Z,101227.84
2023-01-10T10:43:50.032Z,101213.47
2023-01-10T10:46:16.460Z,101204.94
2023-01-10T10:48:42.838Z,101210.06
2023-01-10T10:51:09.233Z,101211.53
2023-01-10T10:53:35.650Z,101200.97
2023-01-10T10:56:02.051Z,101199.44
2023-01-10T10:58:28.440Z,101194.84
2023-01-10T11:00:54.920Z,101193.66
2023-01-10T11:03:21.406Z,101195.59
2023-01-10T11:05:47.762Z,101186.34
2023-01-10T11:08:14.136Z,101182.53
2023-01-10T11:10:40.508Z,101181.84
2023-01-10T11:13:06.874Z,101173.66
2023-01-10T11:15:33.255Z,101174.00
2023-01-10T11:17:59.603Z,101153.44
2023-01-10T11:20:26.039Z,101150.72
2023-01-10T11:22:52.389Z,101156.66
2023-01-10T11:25:18.757Z,101153.09
2023-01-10T11:27:45.141Z,101145.72
2023-01-10T11:30:11.490Z,101137.81
2023-01-10T11:32:37.865Z,101132.09
2023-01-10T11:35:04.273Z,101126.16
2023-01-10T11:37:30.649Z,101107.47
2023-01-10T11:39:56.987Z,101115.63
2023-01-10T11:42:23.354Z,101106.47
2023-01-10T11:44:49.717Z,101099.03
2023-01-10T11:47:16.210Z,101100.59
2023-01-10T11:49:42.591Z,101102.97
2023-01-10T11:52:08.955Z,101098.56
2023-01-10T11:54:35.324Z,101089.22
2023-01-10T11:57:01.823Z,101083.50
2023-01-10T11:59:28.219Z,101080.28
2023-01-10T12:01:54.603Z,101070.59
2023-01-10T12:04:21.125Z,101073.38
2023-01-10T12:06:47.565Z,101066.31
2023-01-10T12:09:13.957Z,101059.47
2023-01-10T12:11:40.327Z,101067.53
2023-01-10T12:14:06.689Z,101056.22
2023-01-10T12:16:33.257Z,101043.16
2023-01-10T12:18:59.632Z,101041.94
2023-01-10T12:21:26.011Z,101027.59
2023-01-10T12:23:52.379Z,101021.72
2023-01-10T12:26:18.779Z,101013.56
2023-01-10T12:28:45.149Z,101016.78
2023-01-10T12:31:11.591Z,101018.16
2023-01-10T12:33:38.617Z,100997.25
2023-01-10T12:36:04.980Z,100991.91
2023-01-10T12:38:31.341Z,101002.28
2023-01-10T12:40:58.804Z,100994.63
2023-01-10T12:43:25.287Z,100992.25
2023-01-10T12:45:51.682Z,100992.25
2023-01-10T12:48:18.084Z,100993.00
2023-01-10T12:50:44.475Z,100983.75
2023-01-10T12:53:10.839Z,100984.34
2023-01-10T12:55:37.180Z,100975.00
2023-01-10T12:58:03.535Z,100971.91
2023-01-10T13:00:32.852Z,100971.25
2023-01-10T13:03:03.984Z,100968.19
2023-01-10T13:05:30.354Z,100963.06
2023-01-10T13:07:56.734Z,100951.88
2023-01-10T13:10:23.205Z,100960.22
2023-01-10T13:12:49.690Z,100955.00
2023-01-10T13:15:16.042Z,100952.56
2023-01-10T13:17:42.403Z,100943.22
2023-01-10T13:20:08.852Z,100944.03
2023-01-10T13:22:35.232Z,100942.63
2023-01-10T13:25:01.618Z,100923.50
2023-01-10T13:27:27.998Z,100936.25
2023-01-10T13:29:54.372Z,100928.75
2023-01-10T13:32:20.768Z,100925.78
2023-01-10T13:34:47.153Z,100912.00
2023-01-10T13:37:13.523Z,100913.94
2023-01-10T13:39:39.898Z,100913.03
2023-01-10T13:42:06.350Z,100912.78
2023-01-10T13:44:32.731Z,100908.69
2023-01-10T13:46:59.100Z,100909.47
2023-01-10T13:49:25.469Z,100909.47
2023-01-10T13:51:51.836Z,100903.59
2023-01-10T13:54:18.201Z,100901.22
2023-01-10T13:56:44.561Z,100886.13
2023-01-10T13:59:10.922Z,100896.22
2023-01-10T14:01:37.335Z,100885.44
2023-01-10T14:04:03.761Z,100884.91
2023-01-10T14:06:30.138Z,100889.25
2023-01-10T14:08:56.506Z,100885.44
2023-01-10T14:11:22.893Z,100888.16
2023-01-10T14:13:49.251Z,100887.72
2023-01-10T14:16:15.685Z,100871.94
2023-01-10T14:18:42.093Z,100872.59
2023-01-10T14:21:08.474Z,100873.34
2023-01-10T14:23:34.835Z,100880.66
2023-01-10T14:26:01.239Z,100881.00
2023-01-10T14:28:27.620Z,100882.09
2023-01-10T14:30:54.028Z,100886.44
2023-01-10T14:33:20.557Z,100872.41
2023-01-10T14:35:46.925Z,100887.09
2023-01-10T14:38:13.294Z,100898.22
2023-01-10T14:40:39.667Z,100881.75
2023-01-10T14:43:06.030Z,100885.44
2023-01-10T14:45:32.398Z,100888.81
2023-01-10T14:47:58.774Z,100886.75
2023-01-10T14:50:25.145Z,100888.88
2023-01-10T14:52:51.503Z,100888.16
2023-01-10T14:55:17.891Z,100883.91
2023-01-10T14:57:44.238Z,100882.19
2023-01-10T15:00:10.609Z,100892.72
2023-01-10T15:02:40.032Z,100890.53
2023-01-10T15:05:06.410Z,100889.25
2023-01-10T15:07:32.770Z,100881.13
2023-01-10T15:09:59.178Z,100877.94
2023-01-10T15:12:25.544Z,100879.47
2023-01-10T15:14:51.909Z,100886.44
2023-01-10T15:17:20.175Z,100876.41
2023-01-10T15:19:46.851Z,100880.31
2023-01-10T15:22:13.210Z,100871.84
2023-01-10T15:24:39.555Z,100858.06
2023-01-10T15:27:05.933Z,100873.59
2023-01-10T15:29:32.311Z,100865.84
2023-01-10T15:31:58.809Z,100863.91
2023-01-10T15:34:25.166Z,100856.84
2023-01-10T15:36:51.554Z,100867.81
2023-01-10T15:39:18.007Z,100858.06
2023-01-10T15:41:44.367Z,100863.50
2023-01-10T15:44:10.732Z,100849.22
2023-01-10T15:46:37.256Z,100855.84
2023-01-10T15:49:03.665Z,100851.84
2023-01-10T15:51:30.042Z,100853.56
2023-01-10T15:53:56.454Z,100849.22
2023-01-10T15:56:22.854Z,100853.47
2023-01-10T15:58:49.224Z,100843.69
2023-01-10T16:01:15.669Z,100851.09
2023-01-10T16:03:42.194Z,100852.72
2023-01-10T16:06:08.600Z,100844.09
2023-01-10T16:08:34.992Z,100838.34
2023-01-10T16:11:01.348Z,100830.31
2023-01-10T16:13:27.989Z,100831.19
2023-01-10T16:15:54.667Z,100836.50
2023-01-10T16:18:21.082Z,100833.38
2023-01-10T16:20:47.447Z,100823.13
2023-01-10T16:23:13.815Z,100825.75
2023-01-10T16:25:40.180Z,100822.59
2023-01-10T16:28:06.597Z,100824.75
2023-01-10T16:30:32.969Z,100814.88
2023-01-10T16:32:59.360Z,100818.22
2023-01-10T16:35:25.733Z,100819.72
2023-01-10T16:37:52.100Z,100814.19
2023-01-10T16:40:18.502Z,100817.59
2023-01-10T16:42:44.872Z,100810.72
2023-01-10T16:45:11.342Z,100809.88
2023-01-10T16:47:37.706Z,100809.53
2023-01-10T16:50:04.067Z,100804.84
2023-01-10T16:52:30.454Z,100801.38
2023-01-10T16:54:56.825Z,100800.59
2023-01-10T16:57:23.179Z,100782.53
2023-01-10T16:59:49.576Z,100779.97
2023-01-10T17:02:15.936Z,100768.41
2023-01-10T17:04:42.275Z,100776.22
2023-01-10T17:07:08.650Z,100777.66
2023-01-10T17:09:35.290Z,100776.47
2023-01-10T17:12:01.719Z,100784.09
2023-01-10T17:14:28.109Z,100798.53
2023-01-10T17:16:54.492Z,100801.72
2023-01-10T17:19:21.487Z,100802.34
2023-01-10T17:21:47.838Z,100796.69
2023-01-10T17:24:14.189Z,100796.69
2023-01-10T17:26:40.571Z,100801.28
2023-01-10T17:29:06.939Z,100786.81
2023-01-10T17:31:33.362Z,100798.91
2023-01-10T17:33:59.777Z,100793.97
2023-01-10T17:36:26.125Z,100788.75
2023-01-10T17:38:52.502Z,100783.41
2023-01-10T17:41:18.873Z,100775.59
2023-01-10T17:43:45.250Z,100781.03
2023-01-10T17:46:11.690Z,100773.41
2023-01-10T17:48:38.111Z,100765.59
2023-01-10T17:51:04.463Z,100761.13
2023-01-10T17:53:30.824Z,100756.09
2023-01-10T17:55:57.191Z,100760.47
2023-01-10T17:58:23.850Z,100740.88
2023-01-10T18:00:50.293Z,100743.75
2023-01-10T18:03:16.812Z,100735.34
2023-01-10T18:05:43.233Z,100741.88
2023-01-10T18:08:09.609Z,100746.88
2023-01-10T18:10:35.977Z,100740.25
2023-01-10T18:13:03.556Z,100738.72
2023-01-10T18:15:30.124Z,100733.72
2023-01-10T18:17:56.475Z,100728.81
2023-01-10T18:20:22.831Z,100735.69
2023-01-10T18:22:49.234Z,100741.13
2023-01-10T18:25:15.607Z,100737.94
2023-01-10T18:27:41.967Z,100726.31
2023-01-10T18:30:08.332Z,100726.97
2023-01-10T18:32:34.709Z,100720.88
2023-01-10T18:35:01.197Z,100731.22
2023-01-10T18:37:27.629Z,100720.34
2023-01-10T18:39:54.034Z,100717.84
2023-01-10T18:42:20.417Z,100719.03
2023-01-10T18:44:46.789Z,100715.44
2023-01-10T18:47:13.143Z,100720.13
2023-01-10T18:49:39.593Z,100716.88
2023-01-10T18:52:05.965Z,100710.44
2023-01-10T18:54:32.320Z,100706.84
2023-01-10T18:56:58.679Z,100706.75
2023-01-10T18:59:25.063Z,100700.66
2023-01-10T19:01:51.498Z,100709.38
2023-01-10T19:04:17.894Z,100702.50
2023-01-10T19:06:44.297Z,100699.56
2023-01-10T19:09:10.643Z,100708.28
2023-01-10T19:11:37.036Z,100707.94
2023-01-10T19:14:03.402Z,100706.84
2023-01-10T19:16:29.766Z,100712.72
2023-01-10T19:18:56.187Z,100707.28
2023-01-10T19:21:22.575Z,100711.09
2023-01-10T19:23:48.948Z,100702.50
2023-01-10T19:26:15.359Z,100703.06
2023-01-10T19:28:41.735Z,100706.97
2023-01-10T19:31:08.141Z,100693.16
2023-01-10T19:33:34.816Z,100708.81
2023-01-10T19:36:01.278Z,100700.66
2023-01-10T19:38:27.659Z,100695.00
2023-01-10T19:40:54.038Z,100711.09
2023-01-10T19:43:20.421Z,100716.53
2023-01-10T19:45:46.809Z,100706.44
2023-01-10T19:48:13.151Z,100713.72
2023-01-10T19:50:39.512Z,100713.47
2023-01-10T19:53:05.994Z,100704.69
2023-01-10T19:55:32.371Z,100691.00
2023-01-10T19:57:58.732Z,100675.53
2023-01-10T20:00:25.114Z,100683.47
2023-01-10T20:02:51.526Z,100671.81
2023-01-10T20:05:17.963Z,100674.31
2023-01-10T20:07:44.341Z,100670.41
2023-01-10T20:10:10.694Z,100671.41
2023-01-10T20:12:37.078Z,100661.69
2023-01-10T20:15:03.445Z,100664.97
2023-01-10T20:17:29.815Z,100656.50
2023-01-10T20:19:56.211Z,100657.69
2023-01-10T20:22:22.580Z,100657.91
2023-01-10T20:24:48.950Z,100652.34
2023-01-10T20:27:15.295Z,100661.50
2023-01-10T20:29:41.673Z,100659.53
2023-01-10T20:32:08.155Z,100654.00
2023-01-10T20:34:34.507Z,100648.09
2023-01-10T20:37:00.861Z,100667.50
2023-01-10T20:39:27.218Z,100656.25
2023-01-10T20:41:53.588Z,100660.19
2023-01-10T20:44:19.958Z,100656.25
2023-01-10T20:46:46.347Z,100652.03
2023-01-10T20:49:12.780Z,100645.38
2023-01-10T20:51:39.135Z,100649.31
2023-01-10T20:54:05.511Z,100649.31
2023-01-10T20:56:31.879Z,100640.72
2023-01-10T20:58:58.365Z,100633.63
2023-01-10T21:01:34.061Z,100634.19
2023-01-10T21:04:00.786Z,100625.28
2023-01-10T21:06:27.229Z,100625.28
2023-01-10T21:08:53.667Z,100619.72
2023-01-10T21:11:20.039Z,100625.28
2023-01-10T21:13:46.461Z,100620.91
2023-01-10T21:16:12.887Z,100622.44
2023-01-10T21:18:39.279Z,100627.78
2023-01-10T21:21:05.636Z,100618.75
2023-01-10T21:23:31.999Z,100620.25
2023-01-10T21:25:58.348Z,100624.50
2023-01-10T21:28:24.712Z,100626.34
2023-01-10T21:30:51.080Z,100624.84
2023-01-10T21:33:17.453Z,100624.97
2023-01-10T21:35:43.810Z,100621.13
2023-01-10T21:38:10.171Z,100615.94
2023-01-10T21:40:36.542Z,100621.47
2023-01-10T21:43:02.924Z,100623.75
2023-01-10T21:45:29.311Z,100619.06
2023-01-10T21:47:55.685Z,100620.25
2023-01-10T21:50:22.631Z,100624.84
2023-01-10T21:52:49.408Z,100625.81
2023-01-10T21:55:15.776Z,100613.00
2023-01-10T21:57:42.176Z,100595.13
2023-01-10T22:00:08.757Z,100612.75
2023-01-10T22:02:35.158Z,100610.38
2023-01-10T22:05:01.516Z,100596.88
2023-01-10T22:07:27.872Z,100601.09
2023-01-10T22:09:54.237Z,100593.59
2023-01-10T22:12:20.608Z,100587.75
2023-01-10T22:14:46.969Z,100587.84
2023-01-10T22:17:13.330Z,100575.44
2023-01-10T22:19:39.727Z,100579.03
2023-01-10T22:22:06.098Z,100570.78
2023-01-10T22:24:32.457Z,100561.09
2023-01-10T22:26:58.826Z,100550.22
2023-01-10T22:29:25.198Z,100549.03
2023-01-10T22:31:51.592Z,100549.03
2023-01-10T22:34:18.004Z,100553.03
2023-01-10T22:36:44.358Z,100551.53
2023-01-10T22:39:10.721Z,100550.00
2023-01-10T22:41:37.087Z,100547.38
2023-01-10T22:44:03.440Z,100548.13
2023-01-10T22:46:29.840Z,100540.56
2023-01-10T22:48:56.182Z,100533.81
2023-01-10T22:51:22.544Z,100542.81
2023-01-10T22:53:48.922Z,100535.72
2023-01-10T22:56:15.286Z,100546.28
2023-01-10T22:58:41.643Z,100547.72
2023-01-10T23:01:07.923Z,100549.44
2023-01-10T23:03:34.264Z,100548.47
2023-01-10T23:06:00.576Z,100550.22
2023-01-10T23:08:26.849Z,100538.38
2023-01-10T23:10:53.122Z,100540.56
2023-01-10T23:13:19.408Z,100537.84
2023-01-10T23:15:45.671Z,100535.66
2023-01-10T23:18:11.934Z,100532.16
2023-01-10T23:20:38.316Z,100531.94
2023-01-10T23:23:04.575Z,100526.38
2023-01-10T23:25:30.830Z,100530.53
2023-01-10T23:27:57.103Z,100525.31
2023-01-10T23:30:23.349Z,100525.84
2023-01-10T23:32:49.632Z,100527.25
2023-01-10T23:35:15.926Z,100534.47
2023-01-10T23:37:42.176Z,100518.69
2023-01-10T23:40:08.476Z,100531.06
2023-01-10T23:42:34.739Z,100522.03
2023-01-10T23:45:00.987Z,100520.94
2023-01-10T23:47:27.250Z,100513.44
2023-01-10T23:49:53.506Z,100522.47
2023-01-10T23:52:19.773Z,100516.69
2023-01-10T23:54:46.044Z,100506.16
2023-01-10T23:57:12.300Z,100507.69
2023-01-10T23:59:38.571Z,100502.47
